sensor_id;sensor_type;location;lat;lon;timestamp;pressure;altitude;pressure_sealevel;temperature;humidity
29359;BME280;16347;53.232;6.556;2023-02-02T00:01:36;101755.75;;;7.52;64.72
29359;BME280;16347;53.232;6.556;2023-02-02T00:04:04;101757.97;;;7.58;64.37
29359;BME280;16347;53.232;6.556;2023-02-02T00:06:33;101758.31;;;7.53;64.91
29359;BME280;16347;53.232;6.556;2023-02-02T00:09:02;101758.94;;;7.57;64.65
29359;BME280;16347;53.232;6.556;2023-02-02T00:11:30;101758.63;;;7.38;65.16
29359;BME280;16347;53.232;6.556;2023-02-02T00:13:59;101765.34;;;7.32;66.03
29359;BME280;16347;53.232;6.556;2023-02-02T00:16:50;101772.31;;;7.23;66.30
29359;BME280;16347;53.232;6.556;2023-02-02T00:19:20;101760.97;;;7.18;66.54
29359;BME280;16347;53.232;6.556;2023-02-02T00:21:49;101764.09;;;7.25;67.28
29359;BME280;16347;53.232;6.556;2023-02-02T00:24:17;101768.91;;;7.33;66.92
29359;BME280;16347;53.232;6.556;2023-02-02T00:26:48;101762.38;;;7.24;66.90
29359;BME280;16347;53.232;6.556;2023-02-02T00:29:19;101767.94;;;7.34;66.92
29359;BME280;16347;53.232;6.556;2023-02-02T00:31:47;101767.59;;;7.38;66.97
29359;BME280;16347;53.232;6.556;2023-02-02T00:34:17;101765.63;;;7.16;68.00
29359;BME280;16347;53.232;6.556;2023-02-02T00:36:46;101776.34;;;7.18;68.34
29359;BME280;16347;53.232;6.556;2023-02-02T00:39:18;101778.13;;;7.30;68.36
29359;BME280;16347;53.232;6.556;2023-02-02T00:41:46;101777.81;;;7.46;68.04
29359;BME280;16347;53.232;6.556;2023-02-02T00:44:14;101773.13;;;7.37;68.57
29359;BME280;16347;53.232;6.556;2023-02-02T00:47:02;101778.03;;;7.32;68.93
29359;BME280;16347;53.232;6.556;2023-02-02T00:49:32;101785.31;;;7.42;69.29
29359;BME280;16347;53.232;6.556;2023-02-02T00:52:00;101780.28;;;7.49;69.44
29359;BME280;16347;53.232;6.556;2023-02-02T00:54:28;101784.41;;;7.54;68.82
29359;BME280;16347;53.232;6.556;2023-02-02T00:56:57;101781.53;;;7.45;69.11
29359;BME280;16347;53.232;6.556;2023-02-02T00:59:25;101778.34;;;7.51;69.58
29359;BME280;16347;53.232;6.556;2023-02-02T01:01:53;101785.59;;;7.50;69.06
29359;BME280;16347;53.232;6.556;2023-02-02T01:04:21;101788.84;;;7.55;69.50
29359;BME280;16347;53.232;6.556;2023-02-02T01:06:51;101800.97;;;7.50;69.47
29359;BME280;16347;53.232;6.556;2023-02-02T01:09:19;101794.47;;;7.52;69.95
29359;BME280;16347;53.232;6.556;2023-02-02T01:11:48;101793.78;;;7.61;69.24
29359;BME280;16347;53.232;6.556;2023-02-02T01:14:19;101800.47;;;7.68;68.95
29359;BME280;16347;53.232;6.556;2023-02-02T01:16:48;101795.22;;;7.54;69.97
29359;BME280;16347;53.232;6.556;2023-02-02T01:19:18;101793.38;;;7.55;69.99
29359;BME280;16347;53.232;6.556;2023-02-02T01:21:48;101803.56;;;7.51;69.63
29359;BME280;16347;53.232;6.556;2023-02-02T01:24:21;101808.19;;;7.62;69.77
29359;BME280;16347;53.232;6.556;2023-02-02T01:26:50;101803.56;;;7.51;70.01
29359;BME280;16347;53.232;6.556;2023-02-02T01:29:20;101802.13;;;7.58;69.74
29359;BME280;16347;53.232;6.556;2023-02-02T01:31:50;101808.91;;;7.64;70.14
29359;BME280;16347;53.232;6.556;2023-02-02T01:34:19;101802.47;;;7.54;69.97
29359;BME280;16347;53.232;6.556;2023-02-02T01:36:47;101807.94;;;7.65;70.09
29359;BME280;16347;53.232;6.556;2023-02-02T01:39:15;101814.44;;;7.62;69.74
29359;BME280;16347;53.232;6.556;2023-02-02T01:41:45;101822.28;;;7.78;69.86
29359;BME280;16347;53.232;6.556;2023-02-02T01:47:21;101814.16;;;7.54;69.74
29359;BME280;16347;53.232;6.556;2023-02-02T01:49:51;101817.78;;;7.66;69.89
29359;BME280;16347;53.232;6.556;2023-02-02T01:52:22;101822.38;;;7.77;69.29
29359;BME280;16347;53.232;6.556;2023-02-02T01:54:53;101824.38;;;7.86;69.38
29359;BME280;16347;53.232;6.556;2023-02-02T01:57:28;101819.66;;;7.77;69.31
29359;BME280;16347;53.232;6.556;2023-02-02T01:59:59;101825.84;;;7.79;69.84
29359;BME280;16347;53.232;6.556;2023-02-02T02:02:40;101818.13;;;7.85;69.55
29359;BME280;16347;53.232;6.556;2023-02-02T02:05:14;101817.63;;;7.91;69.01
29359;BME280;16347;53.232;6.556;2023-02-02T02:07:46;101819.25;;;7.94;69.15
29359;BME280;16347;53.232;6.556;2023-02-02T02:10:17;101825.47;;;7.83;68.97
29359;BME280;16347;53.232;6.556;2023-02-02T02:12:48;101821.09;;;7.93;68.97
29359;BME280;16347;53.232;6.556;2023-02-02T02:15:16;101820.59;;;7.88;69.14
29359;BME280;16347;53.232;6.556;2023-02-02T02:18:21;101821.72;;;7.97;69.53
29359;BME280;16347;53.232;6.556;2023-02-02T02:21:25;101816.53;;;7.94;69.15
29359;BME280;16347;53.232;6.556;2023-02-02T02:25:12;101822.81;;;7.94;69.95
29359;BME280;16347;53.232;6.556;2023-02-02T02:31:11;101812.56;;;7.87;70.25
29359;BME280;16347;53.232;6.556;2023-02-02T02:33:49;101809.72;;;7.77;70.36
29359;BME280;16347;53.232;6.556;2023-02-02T02:36:26;101807.53;;;7.82;70.51
29359;BME280;16347;53.232;6.556;2023-02-02T02:39:03;101805.88;;;7.80;71.11
29359;BME280;16347;53.232;6.556;2023-02-02T02:41:37;101814.41;;;7.86;70.89
29359;BME280;16347;53.232;6.556;2023-02-02T02:44:07;101816.09;;;7.76;71.12
29359;BME280;16347;53.232;6.556;2023-02-02T02:46:37;101822.78;;;7.83;71.32
29359;BME280;16347;53.232;6.556;2023-02-02T02:49:09;101830.56;;;7.64;72.14
29359;BME280;16347;53.232;6.556;2023-02-02T02:51:42;101832.00;;;7.57;72.75
29359;BME280;16347;53.232;6.556;2023-02-02T02:54:16;101826.91;;;7.65;72.90
29359;BME280;16347;53.232;6.556;2023-02-02T02:57:06;101829.59;;;7.65;73.31
29359;BME280;16347;53.232;6.556;2023-02-02T02:59:45;101836.69;;;7.79;73.10
29359;BME280;16347;53.232;6.556;2023-02-02T03:02:31;101831.75;;;7.84;73.65
29359;BME280;16347;53.232;6.556;2023-02-02T03:05:13;101837.22;;;7.95;73.46
29359;BME280;16347;53.232;6.556;2023-02-02T03:07:47;101839.56;;;7.99;73.32
29359;BME280;16347;53.232;6.556;2023-02-02T03:10:18;101839.25;;;8.26;72.81
29359;BME280;16347;53.232;6.556;2023-02-02T03:12:50;101844.63;;;8.04;73.35
29359;BME280;16347;53.232;6.556;2023-02-02T03:15:19;101832.53;;;7.97;73.74
29359;BME280;16347;53.232;6.556;2023-02-02T03:17:49;101838.81;;;7.97;74.40
29359;BME280;16347;53.232;6.556;2023-02-02T03:20:19;101838.97;;;8.07;74.01
29359;BME280;16347;53.232;6.556;2023-02-02T03:22:48;101828.03;;;8.08;74.08
29359;BME280;16347;53.232;6.556;2023-02-02T03:25:16;101832.94;;;8.03;74.65
29359;BME280;16347;53.232;6.556;2023-02-02T03:27:45;101829.88;;;8.08;74.95
29359;BME280;16347;53.232;6.556;2023-02-02T03:30:14;101826.66;;;8.03;75.36
29359;BME280;16347;53.232;6.556;2023-02-02T03:32:43;101829.22;;;7.93;75.61
29359;BME280;16347;53.232;6.556;2023-02-02T03:35:11;101830.47;;;8.00;75.63
29359;BME280;16347;53.232;6.556;2023-02-02T03:37:41;101835.91;;;8.11;75.21
29359;BME280;16347;53.232;6.556;2023-02-02T03:40:10;101838.34;;;8.03;75.67
29359;BME280;16347;53.232;6.556;2023-02-02T03:42:39;101843.94;;;8.24;75.03
29359;BME280;16347;53.232;6.556;2023-02-02T03:45:08;101841.19;;;8.02;75.49
29359;BME280;16347;53.232;6.556;2023-02-02T03:47:39;101840.31;;;8.01;75.20
29359;BME280;16347;53.232;6.556;2023-02-02T03:50:08;101842.50;;;7.96;75.33
29359;BME280;16347;53.232;6.556;2023-02-02T03:52:37;101845.25;;;8.07;74.34
29359;BME280;16347;53.232;6.556;2023-02-02T03:55:08;101845.34;;;7.95;73.28
29359;BME280;16347;53.232;6.556;2023-02-02T03:57:37;101841.78;;;7.94;73.23
29359;BME280;16347;53.232;6.556;2023-02-02T04:00:07;101852.69;;;7.58;73.02
29359;BME280;16347;53.232;6.556;2023-02-02T04:02:38;101850.88;;;7.69;71.70
29359;BME280;16347;53.232;6.556;2023-02-02T04:05:07;101844.97;;;7.64;69.02
29359;BME280;16347;53.232;6.556;2023-02-02T04:07:35;101857.22;;;7.81;67.83
29359;BME280;16347;53.232;6.556;2023-02-02T04:10:04;101850.25;;;7.90;64.99
29359;BME280;16347;53.232;6.556;2023-02-02T04:12:34;101853.47;;;7.95;63.67
29359;BME280;16347;53.232;6.556;2023-02-02T04:15:04;101863.75;;;7.79;63.02
29359;BME280;16347;53.232;6.556;2023-02-02T04:17:33;101855.81;;;7.64;62.33
29359;BME280;16347;53.232;6.556;2023-02-02T04:20:03;101869.50;;;7.74;61.90
29359;BME280;16347;53.232;6.556;2023-02-02T04:22:32;101856.41;;;7.92;61.44
29359;BME280;16347;53.232;6.556;2023-02-02T04:25:00;101861.53;;;7.84;60.89
29359;BME280;16347;53.232;6.556;2023-02-02T04:27:29;101864.97;;;7.86;61.09
29359;BME280;16347;53.232;6.556;2023-02-02T04:30:00;101858.72;;;7.85;60.77
29359;BME280;16347;53.232;6.556;2023-02-02T04:32:30;101866.78;;;7.98;60.99
29359;BME280;16347;53.232;6.556;2023-02-02T04:34:58;101861.22;;;7.99;60.91
29359;BME280;16347;53.232;6.556;2023-02-02T04:37:29;101868.91;;;8.05;61.39
29359;BME280;16347;53.232;6.556;2023-02-02T04:39:57;101872.91;;;7.89;62.04
29359;BME280;16347;53.232;6.556;2023-02-02T04:42:26;101863.91;;;7.88;62.77
29359;BME280;16347;53.232;6.556;2023-02-02T04:44:54;101866.31;;;7.80;63.64
29359;BME280;16347;53.232;6.556;2023-02-02T04:47:24;101875.53;;;7.78;64.04
29359;BME280;16347;53.232;6.556;2023-02-02T04:49:52;101863.53;;;7.93;64.04
29359;BME280;16347;53.232;6.556;2023-02-02T04:52:20;101861.88;;;7.79;64.50
29359;BME280;16347;53.232;6.556;2023-02-02T04:54:48;101869.19;;;7.66;65.60
29359;BME280;16347;53.232;6.556;2023-02-02T04:57:16;101870.78;;;7.81;66.12
29359;BME280;16347;53.232;6.556;2023-02-02T04:59:45;101876.00;;;7.95;65.70
29359;BME280;16347;53.232;6.556;2023-02-02T05:02:13;101874.19;;;7.72;66.44
29359;BME280;16347;53.232;6.556;2023-02-02T05:04:42;101879.13;;;7.78;66.90
29359;BME280;16347;53.232;6.556;2023-02-02T05:07:10;101877.38;;;8.01;66.09
29359;BME280;16347;53.232;6.556;2023-02-02T05:09:40;101881.53;;;7.94;66.24
29359;BME280;16347;53.232;6.556;2023-02-02T05:12:09;101878.59;;;7.97;66.41
29359;BME280;16347;53.232;6.556;2023-02-02T05:14:37;101880.16;;;7.88;66.19
29359;BME280;16347;53.232;6.556;2023-02-02T05:17:06;101877.09;;;7.93;66.79
29359;BME280;16347;53.232;6.556;2023-02-02T05:19:34;101890.56;;;8.05;66.09
29359;BME280;16347;53.232;6.556;2023-02-02T05:22:04;101891.25;;;7.96;66.02
29359;BME280;16347;53.232;6.556;2023-02-02T05:24:32;101890.53;;;7.94;66.09
29359;BME280;16347;53.232;6.556;2023-02-02T05:27:00;101888.03;;;7.91;65.77
29359;BME280;16347;53.232;6.556;2023-02-02T05:29:29;101884.41;;;7.80;66.34
29359;BME280;16347;53.232;6.556;2023-02-02T05:31:58;101879.06;;;7.91;66.01
29359;BME280;16347;53.232;6.556;2023-02-02T05:34:26;101877.94;;;7.93;66.27
29359;BME280;16347;53.232;6.556;2023-02-02T05:36:54;101882.06;;;7.75;66.72
29359;BME280;16347;53.232;6.556;2023-02-02T05:39:25;101886.06;;;7.69;67.48
29359;BME280;16347;53.232;6.556;2023-02-02T05:41:53;101887.50;;;7.86;66.97
29359;BME280;16347;53.232;6.556;2023-02-02T05:44:21;101889.66;;;7.94;66.98
29359;BME280;16347;53.232;6.556;2023-02-02T05:46:49;101891.84;;;7.89;67.04
29359;BME280;16347;53.232;6.556;2023-02-02T05:49:18;101883.78;;;7.76;67.89
29359;BME280;16347;53.232;6.556;2023-02-02T05:51:49;101898.31;;;7.75;68.34
29359;BME280;16347;53.232;6.556;2023-02-02T05:54:18;101900.00;;;7.76;68.25
29359;BME280;16347;53.232;6.556;2023-02-02T05:56:49;101906.22;;;7.89;68.45
29359;BME280;16347;53.232;6.556;2023-02-02T05:59:18;101910.91;;;7.87;68.39
29359;BME280;16347;53.232;6.556;2023-02-02T06:01:46;101913.28;;;7.68;69.14
29359;BME280;16347;53.232;6.556;2023-02-02T06:04:15;101909.00;;;7.77;68.69
29359;BME280;16347;53.232;6.556;2023-02-02T06:06:43;101907.41;;;7.74;68.90
29359;BME280;16347;53.232;6.556;2023-02-02T06:09:13;101910.81;;;7.89;69.09
29359;BME280;16347;53.232;6.556;2023-02-02T06:11:42;101910.84;;;7.76;68.53
29359;BME280;16347;53.232;6.556;2023-02-02T06:14:13;101913.97;;;7.83;68.92
29359;BME280;16347;53.232;6.556;2023-02-02T06:16:42;101907.50;;;7.96;68.72
29359;BME280;16347;53.232;6.556;2023-02-02T06:19:11;101910.56;;;7.92;68.57
29359;BME280;16347;53.232;6.556;2023-02-02T06:21:39;101911.25;;;8.06;67.88
29359;BME280;16347;53.232;6.556;2023-02-02T06:24:07;101916.16;;;8.01;68.09
29359;BME280;16347;53.232;6.556;2023-02-02T06:26:36;101914.88;;;7.94;68.48
29359;BME280;16347;53.232;6.556;2023-02-02T06:29:04;101911.06;;;7.97;68.71
29359;BME280;16347;53.232;6.556;2023-02-02T06:31:33;101919.03;;;7.87;68.90
29359;BME280;16347;53.232;6.556;2023-02-02T06:34:02;101921.41;;;7.92;69.20
29359;BME280;16347;53.232;6.556;2023-02-02T06:36:30;101932.25;;;7.92;69.13
29359;BME280;16347;53.232;6.556;2023-02-02T06:38:58;101930.66;;;8.00;69.13
29359;BME280;16347;53.232;6.556;2023-02-02T06:41:28;101935.81;;;7.92;69.39
29359;BME280;16347;53.232;6.556;2023-02-02T06:43:57;101940.22;;;7.93;69.99
29359;BME280;16347;53.232;6.556;2023-02-02T06:46:25;101943.00;;;7.81;70.22
29359;BME280;16347;53.232;6.556;2023-02-02T06:48:55;101945.59;;;7.82;70.62
29359;BME280;16347;53.232;6.556;2023-02-02T06:51:23;101951.94;;;7.94;70.20
29359;BME280;16347;53.232;6.556;2023-02-02T06:53:51;101948.78;;;7.63;71.02
29359;BME280;16347;53.232;6.556;2023-02-02T06:56:19;101959.44;;;7.54;71.04
29359;BME280;16347;53.232;6.556;2023-02-02T06:58:48;101957.06;;;7.62;71.88
29359;BME280;16347;53.232;6.556;2023-02-02T07:01:16;101959.94;;;7.71;71.69
29359;BME280;16347;53.232;6.556;2023-02-02T07:03:47;101960.53;;;7.88;71.28
29359;BME280;16347;53.232;6.556;2023-02-02T07:06:18;101968.88;;;7.85;71.12
29359;BME280;16347;53.232;6.556;2023-02-02T07:08:48;101973.59;;;7.94;70.71
29359;BME280;16347;53.232;6.556;2023-02-02T07:11:29;101967.44;;;7.92;70.72
29359;BME280;16347;53.232;6.556;2023-02-02T07:14:05;101978.84;;;8.08;70.64
29359;BME280;16347;53.232;6.556;2023-02-02T07:16:34;101979.97;;;8.05;70.39
29359;BME280;16347;53.232;6.556;2023-02-02T07:19:02;101972.50;;;8.20;70.00
29359;BME280;16347;53.232;6.556;2023-02-02T07:21:31;101970.72;;;8.08;69.77
29359;BME280;16347;53.232;6.556;2023-02-02T07:24:03;101983.41;;;8.07;69.75
29359;BME280;16347;53.232;6.556;2023-02-02T07:26:33;101981.38;;;7.98;70.08
29359;BME280;16347;53.232;6.556;2023-02-02T07:29:02;101986.03;;;7.96;70.41
29359;BME280;16347;53.232;6.556;2023-02-02T07:31:31;101988.31;;;8.02;69.97
29359;BME280;16347;53.232;6.556;2023-02-02T07:34:02;101991.22;;;7.99;70.35
29359;BME280;16347;53.232;6.556;2023-02-02T07:36:32;101996.59;;;7.88;71.08
29359;BME280;16347;53.232;6.556;2023-02-02T07:39:01;101996.22;;;7.93;71.24
29359;BME280;16347;53.232;6.556;2023-02-02T07:41:33;102000.03;;;7.90;71.60
29359;BME280;16347;53.232;6.556;2023-02-02T07:44:02;101998.53;;;7.86;71.90
29359;BME280;16347;53.232;6.556;2023-02-02T07:46:31;102008.66;;;7.71;72.53
29359;BME280;16347;53.232;6.556;2023-02-02T07:49:01;102005.28;;;7.81;73.20
29359;BME280;16347;53.232;6.556;2023-02-02T07:51:29;102006.28;;;7.67;73.20
29359;BME280;16347;53.232;6.556;2023-02-02T07:53:59;102010.91;;;7.78;72.96
29359;BME280;16347;53.232;6.556;2023-02-02T07:56:27;102017.38;;;7.88;72.82
29359;BME280;16347;53.232;6.556;2023-02-02T07:58:56;102013.47;;;7.92;72.75
29359;BME280;16347;53.232;6.556;2023-02-02T08:01:25;102017.09;;;8.03;72.66
29359;BME280;16347;53.232;6.556;2023-02-02T08:03:56;102017.94;;;7.80;73.03
29359;BME280;16347;53.232;6.556;2023-02-02T08:06:27;102027.81;;;7.81;73.08
29359;BME280;16347;53.232;6.556;2023-02-02T08:08:58;102030.75;;;7.78;73.95
29359;BME280;16347;53.232;6.556;2023-02-02T08:11:27;102040.56;;;7.79;73.81
29359;BME280;16347;53.232;6.556;2023-02-02T08:13:57;102030.97;;;7.75;74.39
29359;BME280;16347;53.232;6.556;2023-02-02T08:16:26;102042.94;;;7.84;74.09
29359;BME280;16347;53.232;6.556;2023-02-02T08:18:55;102036.00;;;7.92;74.07
29359;BME280;16347;53.232;6.556;2023-02-02T08:21:24;102044.75;;;7.96;73.73
29359;BME280;16347;53.232;6.556;2023-02-02T08:23:52;102046.97;;;7.78;74.23
29359;BME280;16347;53.232;6.556;2023-02-02T08:26:24;102054.09;;;7.79;75.10
29359;BME280;16347;53.232;6.556;2023-02-02T08:28:54;102056.63;;;7.69;75.33
29359;BME280;16347;53.232;6.556;2023-02-02T08:31:26;102054.88;;;7.81;75.50
29359;BME280;16347;53.232;6.556;2023-02-02T08:33:55;102059.44;;;7.81;74.84
29359;BME280;16347;53.232;6.556;2023-02-02T08:36:25;102058.97;;;7.87;75.17
29359;BME280;16347;53.232;6.556;2023-02-02T08:38:54;102062.44;;;7.89;74.77
29359;BME280;16347;53.232;6.556;2023-02-02T08:41:24;102067.88;;;7.89;74.88
29359;BME280;16347;53.232;6.556;2023-02-02T08:43:52;102066.53;;;7.94;75.33
29359;BME280;16347;53.232;6.556;2023-02-02T08:46:20;102070.34;;;7.92;75.35
29359;BME280;16347;53.232;6.556;2023-02-02T08:48:49;102071.81;;;7.96;75.43
29359;BME280;16347;53.232;6.556;2023-02-02T08:51:18;102066.28;;;8.10;75.68
29359;BME280;16347;53.232;6.556;2023-02-02T08:53:47;102079.66;;;8.24;75.11
29359;BME280;16347;53.232;6.556;2023-02-02T08:56:17;102083.34;;;8.23;74.92
29359;BME280;16347;53.232;6.556;2023-02-02T08:58:48;102083.34;;;8.36;75.17
29359;BME280;16347;53.232;6.556;2023-02-02T09:01:19;102084.59;;;8.43;74.67
29359;BME280;16347;53.232;6.556;2023-02-02T09:03:51;102080.22;;;8.53;74.56
29359;BME280;16347;53.232;6.556;2023-02-02T09:06:20;102085.78;;;8.51;74.33
29359;BME280;16347;53.232;6.556;2023-02-02T09:08:48;102093.91;;;8.51;73.69
29359;BME280;16347;53.232;6.556;2023-02-02T09:11:18;102092.00;;;8.41;73.82
29359;BME280;16347;53.232;6.556;2023-02-02T09:13:48;102094.97;;;8.25;74.94
29359;BME280;16347;53.232;6.556;2023-02-02T09:16:20;102100.06;;;8.17;75.38
29359;BME280;16347;53.232;6.556;2023-02-02T09:18:49;102103.41;;;8.20;75.56
29359;BME280;16347;53.232;6.556;2023-02-02T09:21:18;102098.22;;;8.30;75.16
29359;BME280;16347;53.232;6.556;2023-02-02T09:23:47;102107.09;;;8.32;75.51
29359;BME280;16347;53.232;6.556;2023-02-02T09:26:17;102102.75;;;8.30;75.88
29359;BME280;16347;53.232;6.556;2023-02-02T09:28:49;102102.75;;;8.30;75.69
29359;BME280;16347;53.232;6.556;2023-02-02T09:31:17;102104.06;;;8.24;75.90
29359;BME280;16347;53.232;6.556;2023-02-02T09:33:46;102100.47;;;8.36;75.54
29359;BME280;16347;53.232;6.556;2023-02-02T09:36:16;102105.28;;;8.33;75.29
29359;BME280;16347;53.232;6.556;2023-02-02T09:38:46;102112.41;;;8.21;75.32
29359;BME280;16347;53.232;6.556;2023-02-02T09:44:21;102122.78;;;8.40;75.33
29359;BME280;16347;53.232;6.556;2023-02-02T09:47:09;102122.53;;;8.43;75.45
29359;BME280;16347;53.232;6.556;2023-02-02T09:49:47;102126.91;;;8.45;75.38
29359;BME280;16347;53.232;6.556;2023-02-02T09:52:24;102134.66;;;8.62;74.78
29359;BME280;16347;53.232;6.556;2023-02-02T09:54:57;102134.88;;;8.59;74.61
29359;BME280;16347;53.232;6.556;2023-02-02T09:57:32;102130.81;;;8.65;74.34
29359;BME280;16347;53.232;6.556;2023-02-02T10:00:06;102130.25;;;8.49;74.06
29359;BME280;16347;53.232;6.556;2023-02-02T10:02:44;102139.19;;;8.62;73.97
29359;BME280;16347;53.232;6.556;2023-02-02T10:05:18;102146.13;;;8.66;73.93
29359;BME280;16347;53.232;6.556;2023-02-02T10:07:51;102145.19;;;8.78;73.64
29359;BME280;16347;53.232;6.556;2023-02-02T10:10:23;102143.63;;;8.63;73.38
29359;BME280;16347;53.232;6.556;2023-02-02T10:12:56;102145.44;;;8.75;73.28
29359;BME280;16347;53.232;6.556;2023-02-02T10:15:34;102145.25;;;8.65;73.54
29359;BME280;16347;53.232;6.556;2023-02-02T10:18:10;102153.97;;;8.82;72.64
29359;BME280;16347;53.232;6.556;2023-02-02T10:20:43;102144.25;;;8.90;71.87
29359;BME280;16347;53.232;6.556;2023-02-02T10:23:20;102146.69;;;8.82;72.10
29359;BME280;16347;53.232;6.556;2023-02-02T10:25:55;102150.69;;;8.89;72.39
29359;BME280;16347;53.232;6.556;2023-02-02T10:28:35;102154.19;;;8.79;72.16
29359;BME280;16347;53.232;6.556;2023-02-02T10:31:16;102163.44;;;8.76;72.28
29359;BME280;16347;53.232;6.556;2023-02-02T10:33:54;102159.09;;;8.73;72.39
29359;BME280;16347;53.232;6.556;2023-02-02T10:36:34;102166.66;;;8.81;71.97
29359;BME280;16347;53.232;6.556;2023-02-02T10:39:15;102164.88;;;8.93;72.35
29359;BME280;16347;53.232;6.556;2023-02-02T10:41:53;102163.47;;;8.87;72.13
29359;BME280;16347;53.232;6.556;2023-02-02T10:44:30;102170.53;;;8.90;71.91
29359;BME280;16347;53.232;6.556;2023-02-02T10:47:03;102171.59;;;8.87;71.94
29359;BME280;16347;53.232;6.556;2023-02-02T10:49:35;102172.72;;;8.85;72.29
29359;BME280;16347;53.232;6.556;2023-02-02T10:52:13;102181.19;;;8.80;72.07
29359;BME280;16347;53.232;6.556;2023-02-02T10:54:51;102181.59;;;8.87;72.55
29359;BME280;16347;53.232;6.556;2023-02-02T10:57:31;102188.81;;;8.75;72.93
29359;BME280;16347;53.232;6.556;2023-02-02T11:00:05;102174.28;;;8.76;72.70
29359;BME280;16347;53.232;6.556;2023-02-02T11:02:39;102183.91;;;8.80;72.55
29359;BME280;16347;53.232;6.556;2023-02-02T11:05:12;102187.88;;;8.87;72.22
29359;BME280;16347;53.232;6.556;2023-02-02T11:07:58;102191.59;;;8.86;72.46
29359;BME280;16347;53.232;6.556;2023-02-02T11:10:26;102195.28;;;8.85;72.76
29359;BME280;16347;53.232;6.556;2023-02-02T11:12:55;102192.34;;;8.88;72.63
29359;BME280;16347;53.232;6.556;2023-02-02T11:15:29;102196.50;;;9.05;72.85
29359;BME280;16347;53.232;6.556;2023-02-02T11:18:11;102196.59;;;9.03;72.45
29359;BME280;16347;53.232;6.556;2023-02-02T11:20:42;102195.53;;;9.06;71.99
29359;BME280;16347;53.232;6.556;2023-02-02T11:23:17;102197.75;;;9.12;71.47
29359;BME280;16347;53.232;6.556;2023-02-02T11:25:56;102192.41;;;8.99;71.75
29359;BME280;16347;53.232;6.556;2023-02-02T11:28:26;102201.50;;;8.98;72.34
29359;BME280;16347;53.232;6.556;2023-02-02T11:30:57;102204.63;;;9.05;72.28
29359;BME280;16347;53.232;6.556;2023-02-02T11:33:29;102205.25;;;9.08;72.53
29359;BME280;16347;53.232;6.556;2023-02-02T11:36:00;102214.78;;;9.14;72.43
29359;BME280;16347;53.232;6.556;2023-02-02T11:38:30;102206.28;;;9.18;72.32
29359;BME280;16347;53.232;6.556;2023-02-02T11:40:59;102210.84;;;9.18;72.37
29359;BME280;16347;53.232;6.556;2023-02-02T11:43:32;102206.13;;;9.33;71.67
29359;BME280;16347;53.232;6.556;2023-02-02T11:46:04;102201.66;;;9.32;71.88
29359;BME280;16347;53.232;6.556;2023-02-02T11:48:37;102196.13;;;9.33;71.80
29359;BME280;16347;53.232;6.556;2023-02-02T11:51:06;102193.28;;;9.35;71.11
29359;BME280;16347;53.232;6.556;2023-02-02T11:53:45;102196.00;;;9.35;71.11
29359;BME280;16347;53.232;6.556;2023-02-02T11:56:18;102190.84;;;9.43;71.53
29359;BME280;16347;53.232;6.556;2023-02-02T11:58:51;102197.59;;;9.37;70.34
29359;BME280;16347;53.232;6.556;2023-02-02T12:01:23;102194.38;;;9.32;69.95
29359;BME280;16347;53.232;6.556;2023-02-02T12:03:54;102191.16;;;9.27;70.26
29359;BME280;16347;53.232;6.556;2023-02-02T12:06:25;102193.84;;;9.27;70.12
29359;BME280;16347;53.232;6.556;2023-02-02T12:08:56;102198.94;;;9.32;70.51
29359;BME280;16347;53.232;6.556;2023-02-02T12:11:37;102192.16;;;9.37;69.95
29359;BME280;16347;53.232;6.556;2023-02-02T12:14:19;102180.91;;;9.31;69.86
29359;BME280;16347;53.232;6.556;2023-02-02T12:16:57;102182.41;;;9.35;69.54
29359;BME280;16347;53.232;6.556;2023-02-02T12:22:34;102187.06;;;9.21;68.95
29359;BME280;16347;53.232;6.556;2023-02-02T12:25:29;102191.28;;;9.25;69.73
29359;BME280;16347;53.232;6.556;2023-02-02T12:28:08;102188.75;;;9.11;69.38
29359;BME280;16347;53.232;6.556;2023-02-02T12:30:48;102191.56;;;9.10;69.84
29359;BME280;16347;53.232;6.556;2023-02-02T12:33:29;102181.25;;;9.15;69.49
29359;BME280;16347;53.232;6.556;2023-02-02T12:36:14;102190.13;;;9.17;69.30
29359;BME280;16347;53.232;6.556;2023-02-02T12:39:08;102187.41;;;9.17;68.77
29359;BME280;16347;53.232;6.556;2023-02-02T12:41:52;102193.31;;;9.11;68.94
29359;BME280;16347;53.232;6.556;2023-02-02T12:44:34;102177.19;;;9.20;69.12
29359;BME280;16347;53.232;6.556;2023-02-02T12:47:14;102167.34;;;9.31;69.41
29359;BME280;16347;53.232;6.556;2023-02-02T12:49:58;102159.59;;;9.37;69.96
29359;BME280;16347;53.232;6.556;2023-02-02T12:52:43;102150.13;;;9.43;69.95
29359;BME280;16347;53.232;6.556;2023-02-02T12:55:25;102152.22;;;9.39;70.02
29359;BME280;16347;53.232;6.556;2023-02-02T12:58:03;102144.91;;;9.28;69.85
29359;BME280;16347;53.232;6.556;2023-02-02T13:00:49;102147.03;;;9.36;69.82
29359;BME280;16347;53.232;6.556;2023-02-02T13:03:30;102146.16;;;9.36;69.84
29359;BME280;16347;53.232;6.556;2023-02-02T13:06:22;102151.44;;;9.37;69.85
29359;BME280;16347;53.232;6.556;2023-02-02T13:09:00;102152.31;;;9.38;69.86
29359;BME280;16347;53.232;6.556;2023-02-02T13:11:36;102150.88;;;9.45;69.76
29359;BME280;16347;53.232;6.556;2023-02-02T13:14:08;102152.31;;;9.38;70.16
29359;BME280;16347;53.232;6.556;2023-02-02T13:16:40;102150.81;;;9.34;70.21
29359;BME280;16347;53.232;6.556;2023-02-02T13:19:13;102155.22;;;9.23;70.10
29359;BME280;16347;53.232;6.556;2023-02-02T13:21:45;102155.03;;;9.26;70.06
29359;BME280;16347;53.232;6.556;2023-02-02T13:24:27;102147.47;;;9.30;70.40
29359;BME280;16347;53.232;6.556;2023-02-02T13:26:58;102142.44;;;9.25;70.57
29359;BME280;16347;53.232;6.556;2023-02-02T13:29:33;102144.03;;;9.28;70.21
29359;BME280;16347;53.232;6.556;2023-02-02T13:32:18;102152.50;;;9.12;70.35
29359;BME280;16347;53.232;6.556;2023-02-02T13:34:50;102146.69;;;9.06;70.85
29359;BME280;16347;53.232;6.556;2023-02-02T13:37:26;102137.47;;;9.19;70.93
29359;BME280;16347;53.232;6.556;2023-02-02T13:40:19;102137.00;;;9.25;70.22